HETCH HETCHY (HTH)

Elevation: 3870' · TUOLUMNE R basin · Operator: Hetch Hetchy Water and Power

Provisional data, subject to change.
Query executed Friday at 9:22:15

Select a sensor type for a plot of data.
Note: Reservoir Flows are daily averages.

Earlier

Date RES ELE    STORAGE    RES CHG    OUTFLOW    INFLOW    PPT INC    RAIN    PPTINC4   
 FEET   AF   AF   CFS   CFS   INCHES   INCHES   INCHES  
11/10/2016 -- 321680 -- 320 -- 0.00 6.53 0.00
11/11/2016 -- 322060 -- 370 -- 0.00 6.53 0.00
11/12/2016 -- 322060 -- 381 -- 0.00 6.53 0.00
11/13/2016 -- 322250 -- 362 -- 0.00 6.53 0.00
11/14/2016 -- 322250 -- 370 -- 0.00 6.53 0.00
11/15/2016 -- 322250 -- 343 -- 0.00 6.53 0.00
11/16/2016 -- 322060 -- 342 -- 0.00 6.53 0.00
11/17/2016 -- 321680 -- 578 -- 0.05 6.58 0.03
11/18/2016 -- 321302 -- 657 -- 0.00 6.58 0.00
11/19/2016 -- 319790 -- 650 -- 0.00 6.58 0.00
11/20/2016 -- 319034 -- 627 -- 0.00 6.58 0.01
11/21/2016 -- 318278 -- 626 -- 0.32 6.90 0.11
11/22/2016 -- 318089 -- 626 -- 0.00 6.90 0.03
11/23/2016 -- -- -- -- -- 0.32 7.22 0.00
11/24/2016 -- 315822 -- 735 -- 0.00 7.22 0.21
11/25/2016 -- 314882 -- 637 -- 0.00 7.22 0.00
11/26/2016 -- 314130 -- 626 -- 0.00 7.22 0.00
11/27/2016 -- 313942 -- 438 -- 1.45 8.67 1.10
11/28/2016 -- 313754 -- 363 -- 0.09 8.76 0.57
11/29/2016 -- 313942 -- 239 -- 0.01 8.77 0.10
11/30/2016 -- 313942 -- 224 -- 0.00 8.77 0.00
12/01/2016 -- 313754 -- 382 -- 0.00 8.77 0.00
12/02/2016 -- 313566 -- 348 -- 0.00 8.77 0.00
12/03/2016 -- 313378 -- 323 -- 0.00 8.77 0.00
12/04/2016 -- 313566 -- 188 -- 0.00 8.77 0.00
12/05/2016 -- 313754 -- 116 -- 0.00 8.77 0.00
12/06/2016 -- 313566 -- 302 -- 0.00 8.77 0.00
12/07/2016 -- 313566 -- 299 -- 17886.00 17894.77 0.00
12/08/2016 -- -- -- -- -- -- 17894.77 0.24
12/09/2016 -- -- -- -- -- -- -- 0.28

Later | Latest

Warning! This data is preliminary and subject to revision.

Show HTH Map | Plot HTH Data | 1 Month HTH Data | Real-Time HTH Data | HTH Info